createdAt,value
2019-06-10T00:04:23.229Z,41.54
2019-06-10T00:09:25.440Z,41.61
2019-06-10T00:14:27.608Z,41.56
2019-06-10T00:19:31.692Z,41.60
2019-06-10T00:24:33.838Z,41.52
2019-06-10T00:29:36.027Z,41.65
2019-06-10T00:34:38.217Z,41.52
2019-06-10T00:39:40.917Z,41.76
2019-06-10T00:44:43.137Z,42.44
2019-06-10T00:49:45.304Z,42.64
2019-06-10T00:54:47.709Z,42.89
2019-06-10T00:59:50.776Z,43.73
2019-06-10T01:04:53.191Z,44.59
2019-06-10T01:09:55.361Z,44.82
2019-06-10T01:14:57.595Z,44.78
2019-06-10T01:20:01.520Z,45.00
2019-06-10T01:25:05.221Z,44.98
2019-06-10T01:30:14.276Z,45.62
2019-06-10T01:35:14.520Z,46.06
2019-06-10T01:40:17.994Z,46.01
2019-06-10T01:45:21.277Z,45.99
2019-06-10T01:50:23.692Z,46.22
2019-06-10T01:55:25.883Z,46.65
2019-06-10T02:00:47.856Z,46.54
2019-06-10T02:05:51.663Z,46.21
2019-06-10T02:10:54.693Z,46.19
2019-06-10T02:16:00.501Z,46.60
2019-06-10T02:21:02.478Z,47.07
2019-06-10T02:26:05.045Z,46.64
2019-06-10T02:31:07.287Z,46.00
2019-06-10T02:36:09.449Z,45.12
2019-06-10T02:41:16.338Z,44.88
2019-06-10T02:46:19.705Z,45.00
2019-06-10T02:51:24.514Z,45.25
2019-06-10T02:56:30.692Z,47.31
2019-06-10T03:01:34.218Z,49.18
2019-06-10T03:06:39.756Z,53.87
2019-06-10T03:11:39.876Z,57.81
2019-06-10T03:16:46.859Z,60.59
2019-06-10T03:21:49.420Z,62.75
2019-06-10T03:26:52.220Z,63.30
2019-06-10T03:31:55.755Z,63.82
2019-06-10T03:36:59.591Z,64.10
2019-06-10T03:42:02.345Z,63.50
2019-06-10T03:47:04.948Z,63.96
2019-06-10T03:52:08.008Z,64.78
2019-06-10T03:57:12.078Z,65.54
2019-06-10T04:02:14.327Z,66.21
2019-06-10T04:07:17.975Z,66.36
2019-06-10T04:12:22.172Z,66.83
2019-06-10T04:17:27.371Z,67.14
2019-06-10T04:22:32.935Z,67.04
2019-06-10T04:27:35.892Z,66.62
2019-06-10T04:32:38.085Z,66.54
2019-06-10T04:37:42.841Z,66.26
2019-06-10T04:42:46.555Z,66.66
2019-06-10T04:47:48.841Z,66.74
2019-06-10T04:52:52.868Z,67.35
2019-06-10T04:57:55.273Z,67.48
2019-06-10T05:02:57.448Z,67.48
2019-06-10T05:08:02.524Z,67.53
2019-06-10T05:13:04.833Z,67.75
2019-06-10T05:18:07.018Z,68.04
2019-06-10T05:23:09.275Z,68.02
2019-06-10T05:28:12.390Z,68.10
2019-06-10T05:33:15.113Z,68.18
2019-06-10T05:38:17.449Z,68.36
2019-06-10T05:43:21.960Z,68.46
2019-06-10T05:48:25.592Z,69.14
2019-06-10T05:53:29.237Z,69.22
2019-06-10T05:58:35.795Z,69.18
2019-06-10T06:03:37.968Z,69.17
2019-06-10T06:08:42.912Z,69.15
2019-06-10T06:13:45.699Z,69.30
2019-06-10T06:18:47.897Z,69.18
2019-06-10T06:23:52.606Z,68.78
2019-06-10T06:28:55.013Z,68.78
2019-06-10T06:33:57.487Z,68.96
2019-06-10T06:39:02.177Z,68.89
2019-06-10T06:44:05.788Z,68.97
2019-06-10T06:49:08.000Z,68.74
2019-06-10T06:54:12.348Z,68.51
2019-06-10T06:59:14.448Z,68.17
2019-06-10T07:04:16.788Z,67.86
2019-06-10T07:09:21.978Z,67.80
2019-06-10T07:14:27.547Z,68.00
2019-06-10T07:19:29.773Z,68.18
2019-06-10T07:24:34.191Z,67.68
2019-06-10T07:29:39.173Z,66.18
2019-06-10T07:34:46.453Z,64.03
2019-06-10T07:39:46.046Z,63.29
2019-06-10T07:44:48.289Z,63.16
2019-06-10T07:49:52.312Z,63.58
2019-06-10T07:54:54.991Z,63.35
2019-06-10T07:59:57.506Z,63.70
2019-06-10T08:04:59.660Z,63.98
2019-06-10T08:10:04.071Z,64.30
2019-06-10T08:15:07.494Z,64.12
2019-06-10T08:20:13.163Z,63.55
2019-06-10T08:25:14.997Z,63.56
2019-06-10T08:30:23.163Z,62.69
2019-06-10T08:35:37.660Z,61.66
2019-06-10T08:40:27.401Z,59.97
2019-06-10T08:45:29.663Z,59.38
2019-06-10T08:50:33.675Z,59.23
2019-06-10T08:55:37.413Z,58.87
2019-06-10T09:00:44.384Z,58.20
2019-06-10T09:05:49.001Z,58.08
2019-06-10T09:10:54.156Z,57.21
2019-06-10T09:16:09.671Z,57.18
2019-06-10T09:20:59.088Z,56.50
2019-06-10T09:26:03.638Z,56.25
2019-06-10T09:31:06.608Z,55.88
2019-06-10T09:36:09.422Z,55.55
2019-06-10T09:41:14.135Z,55.09
2019-06-10T09:46:18.549Z,53.47
2019-06-10T09:51:23.094Z,53.03
2019-06-10T09:56:25.349Z,52.35
2019-06-10T10:01:27.955Z,48.31
2019-06-10T10:06:32.698Z,45.26
2019-06-10T10:11:35.062Z,43.33
2019-06-10T10:16:37.666Z,43.24
2019-06-10T10:21:42.304Z,43.37
2019-06-10T10:26:47.143Z,41.76
2019-06-10T10:31:50.799Z,40.81
2019-06-10T10:36:56.970Z,38.64
2019-06-10T10:41:57.462Z,36.80
2019-06-10T10:46:59.638Z,36.13
2019-06-10T10:52:02.728Z,35.88
2019-06-10T10:57:05.196Z,35.76
2019-06-10T11:02:08.710Z,36.56
2019-06-10T11:07:12.981Z,37.62
2019-06-10T11:12:17.153Z,38.74
2019-06-10T11:17:19.715Z,39.36
2019-06-10T11:22:23.288Z,40.41
2019-06-10T11:27:25.487Z,40.75
2019-06-10T11:32:28.345Z,40.73
2019-06-10T11:37:31.007Z,41.22
2019-06-10T11:42:33.634Z,40.93
2019-06-10T11:47:37.038Z,40.97
2019-06-10T11:52:39.864Z,40.63
2019-06-10T11:57:42.750Z,39.95
2019-06-10T12:02:45.298Z,37.94
2019-06-10T12:07:48.873Z,37.67
2019-06-10T12:12:55.083Z,37.36
2019-06-10T12:18:01.823Z,37.03
2019-06-10T12:23:01.944Z,37.85
2019-06-10T12:28:07.307Z,38.19
2019-06-10T12:33:08.920Z,38.03
2019-06-10T12:38:13.834Z,38.38
2019-06-10T12:43:15.712Z,38.99
2019-06-10T12:48:18.496Z,38.92
2019-06-10T12:53:22.796Z,38.30
2019-06-10T12:58:24.812Z,39.00
2019-06-10T13:03:27.514Z,39.17
2019-06-10T13:08:33.738Z,39.38
2019-06-10T13:13:35.947Z,39.92
2019-06-10T13:18:38.125Z,39.40
2019-06-10T13:23:42.892Z,38.96
2019-06-10T13:28:44.601Z,38.28
2019-06-10T13:33:47.101Z,38.37
2019-06-10T13:38:49.666Z,37.85
2019-06-10T13:43:52.844Z,37.23
2019-06-10T13:48:55.940Z,36.48
2019-06-10T13:53:58.713Z,36.97
2019-06-10T13:59:03.674Z,38.21
2019-06-10T14:04:13.769Z,38.40
2019-06-10T14:09:16.276Z,38.09
2019-06-10T14:14:18.128Z,38.00
2019-06-10T14:19:20.378Z,38.66
2019-06-10T14:24:22.997Z,38.66
2019-06-10T14:29:25.702Z,38.94
2019-06-10T14:34:27.991Z,39.15
2019-06-10T14:39:32.941Z,39.58
2019-06-10T14:44:36.087Z,39.86
2019-06-10T14:49:38.552Z,40.29
2019-06-10T14:54:42.855Z,40.72
2019-06-10T14:59:45.520Z,40.67
2019-06-10T15:04:48.042Z,40.65
2019-06-10T15:09:52.621Z,40.32
2019-06-10T15:14:54.571Z,40.51
2019-06-10T15:19:56.866Z,40.29
2019-06-10T15:24:59.589Z,40.06
2019-06-10T15:30:11.309Z,40.00
2019-06-10T15:35:06.375Z,40.67
2019-06-10T15:40:09.515Z,41.38
2019-06-10T15:45:15.315Z,42.01
2019-06-10T15:50:18.737Z,42.43
2019-06-10T15:55:37.805Z,42.42
2019-06-10T16:00:28.973Z,42.66
2019-06-10T16:05:32.220Z,42.77
2019-06-10T16:10:34.912Z,43.04
2019-06-10T16:15:37.707Z,43.44
2019-06-10T16:20:42.749Z,43.80
2019-06-10T16:25:45.231Z,44.25
2019-06-10T16:30:47.875Z,44.89
2019-06-10T16:35:50.337Z,45.16
2019-06-10T16:40:53.815Z,45.04
2019-06-10T16:45:56.820Z,44.94
2019-06-10T16:50:59.504Z,45.32
2019-06-10T16:56:03.325Z,45.50
2019-06-10T17:01:05.797Z,45.50
2019-06-10T17:06:08.001Z,45.22
2019-06-10T17:11:12.329Z,45.49
2019-06-10T17:16:15.236Z,45.90
2019-06-10T17:21:19.398Z,45.91
2019-06-10T17:26:29.643Z,46.56
2019-06-10T17:31:30.845Z,47.43
2019-06-10T17:36:35.103Z,47.87
2019-06-10T17:41:36.534Z,48.19
2019-06-10T17:46:39.600Z,48.22
2019-06-10T17:51:43.286Z,48.41
2019-06-10T17:56:45.856Z,48.44
2019-06-10T18:01:48.048Z,48.32
2019-06-10T18:06:52.905Z,48.40
2019-06-10T18:11:55.631Z,48.79
2019-06-10T18:16:58.850Z,49.25
2019-06-10T18:22:03.003Z,49.67
2019-06-10T18:27:05.361Z,49.95
2019-06-10T18:32:07.600Z,50.17
2019-06-10T18:37:10.157Z,50.31
2019-06-10T18:42:12.802Z,50.50
2019-06-10T18:47:15.431Z,50.54
2019-06-10T18:52:18.219Z,50.87
2019-06-10T18:57:22.489Z,51.24
2019-06-10T19:02:24.750Z,51.74
2019-06-10T19:07:27.126Z,52.24
2019-06-10T19:12:29.653Z,52.56
2019-06-10T19:17:34.942Z,52.86
2019-06-10T19:22:37.900Z,53.19
2019-06-10T19:27:44.350Z,53.55
2019-06-10T19:32:46.573Z,53.84
2019-06-10T19:37:48.817Z,54.20
2019-06-10T19:42:52.511Z,54.41
2019-06-10T19:47:56.805Z,54.69
2019-06-10T19:52:59.273Z,54.91
2019-06-10T19:58:03.769Z,55.19
2019-06-10T20:03:05.658Z,55.62
2019-06-10T20:08:07.794Z,56.05
2019-06-10T20:13:10.008Z,56.49
2019-06-10T20:18:12.768Z,56.69
2019-06-10T20:23:15.357Z,56.99
2019-06-10T20:28:17.807Z,57.36
2019-06-10T20:33:35.837Z,57.72
2019-06-10T20:38:35.517Z,58.09
2019-06-10T20:43:39.247Z,58.58
2019-06-10T20:48:45.386Z,58.94
2019-06-10T20:53:46.460Z,59.21
2019-06-10T20:58:52.461Z,59.49
2019-06-10T21:03:55.655Z,59.83
2019-06-10T21:09:00.057Z,60.25
2019-06-10T21:14:03.177Z,60.65
2019-06-10T21:19:06.225Z,61.06
2019-06-10T21:24:08.612Z,61.51
2019-06-10T21:29:12.886Z,62.16
2019-06-10T21:34:14.905Z,62.61
2019-06-10T21:39:17.703Z,63.06
2019-06-10T21:44:22.978Z,63.67
2019-06-10T21:49:25.668Z,64.18
2019-06-10T21:54:29.826Z,64.63
2019-06-10T21:59:32.228Z,65.29
2019-06-10T22:04:35.002Z,65.52
2019-06-10T22:09:37.515Z,65.95
2019-06-10T22:14:42.262Z,66.31
2019-06-10T22:19:46.492Z,66.34
2019-06-10T22:24:49.164Z,66.46
2019-06-10T22:29:54.314Z,66.92
2019-06-10T22:34:59.971Z,67.09
2019-06-10T22:40:03.446Z,67.38
2019-06-10T22:45:07.508Z,67.74
2019-06-10T22:50:12.613Z,68.33
2019-06-10T22:55:15.893Z,68.98
2019-06-10T23:00:18.501Z,69.43
2019-06-10T23:05:23.323Z,69.72
2019-06-10T23:10:25.085Z,70.36
2019-06-10T23:15:27.243Z,70.26
2019-06-10T23:20:30.031Z,70.53
2019-06-10T23:25:34.784Z,70.73
2019-06-10T23:30:38.836Z,70.86
2019-06-10T23:35:42.934Z,71.22
2019-06-10T23:40:45.945Z,71.28
2019-06-10T23:45:48.104Z,71.67
2019-06-10T23:50:54.041Z,72.15
2019-06-10T23:55:56.168Z,72.59
